createdAt,value
2018-03-01T00:01:42.732Z,7.27
2018-03-01T00:04:09.798Z,7.27
2018-03-01T00:06:35.957Z,6.10
2018-03-01T00:09:02.122Z,8.70
2018-03-01T00:11:28.349Z,6.67
2018-03-01T00:13:54.702Z,6.10
2018-03-01T00:16:20.950Z,7.17
2018-03-01T00:18:47.096Z,7.73
2018-03-01T00:21:13.274Z,8.67
2018-03-01T00:23:39.488Z,7.70
2018-03-01T00:26:05.613Z,4.27
2018-03-01T00:28:31.884Z,7.70
2018-03-01T00:30:58.037Z,6.43
2018-03-01T00:33:24.292Z,5.60
2018-03-01T00:35:50.433Z,6.20
2018-03-01T00:38:16.619Z,6.43
2018-03-01T00:40:42.772Z,6.97
2018-03-01T00:43:09.050Z,5.00
2018-03-01T00:45:35.912Z,5.67
2018-03-01T00:48:02.130Z,7.57
2018-03-01T00:50:28.295Z,7.03
2018-03-01T00:52:54.481Z,4.70
2018-03-01T00:55:20.668Z,6.10
2018-03-01T00:57:46.865Z,4.77
2018-03-01T01:00:13.079Z,4.63
2018-03-01T01:02:39.281Z,7.47
2018-03-01T01:05:05.525Z,7.43
2018-03-01T01:07:31.705Z,7.07
2018-03-01T01:09:57.905Z,5.30
2018-03-01T01:12:24.100Z,7.77
2018-03-01T01:14:50.233Z,5.70
2018-03-01T01:17:16.485Z,6.13
2018-03-01T01:19:42.669Z,5.00
2018-03-01T01:22:08.862Z,5.90
2018-03-01T01:24:35.017Z,7.30
2018-03-01T01:27:01.209Z,6.60
2018-03-01T01:29:27.365Z,6.60
2018-03-01T01:31:53.553Z,5.57
2018-03-01T01:34:19.687Z,7.10
2018-03-01T01:36:45.849Z,6.87
2018-03-01T01:39:11.980Z,5.60
2018-03-01T01:41:38.127Z,3.47
2018-03-01T01:44:04.317Z,5.20
2018-03-01T01:46:30.473Z,4.80
2018-03-01T01:48:56.592Z,4.70
2018-03-01T01:51:22.765Z,5.77
2018-03-01T01:53:48.917Z,6.00
2018-03-01T01:56:15.049Z,5.87
2018-03-01T01:58:41.215Z,4.70
2018-03-01T02:01:07.377Z,7.10
2018-03-01T02:03:33.537Z,6.07
2018-03-01T02:06:00.433Z,6.90
2018-03-01T02:08:26.614Z,6.10
2018-03-01T02:10:52.751Z,4.67
2018-03-01T02:13:18.934Z,7.00
2018-03-01T02:15:45.061Z,5.50
2018-03-01T02:18:11.926Z,6.60
2018-03-01T02:20:38.084Z,7.63
2018-03-01T02:23:04.228Z,6.20
2018-03-01T02:25:30.349Z,7.33
2018-03-01T02:27:56.537Z,4.50
2018-03-01T02:30:26.538Z,7.33
2018-03-01T02:32:52.681Z,6.60
2018-03-01T02:35:18.911Z,6.20
2018-03-01T02:37:45.062Z,7.03
2018-03-01T02:40:11.212Z,7.10
2018-03-01T02:42:37.366Z,6.70
2018-03-01T02:45:03.510Z,3.40
2018-03-01T02:47:29.664Z,5.00
2018-03-01T02:49:56.667Z,5.20
2018-03-01T02:52:23.701Z,6.03
2018-03-01T02:54:49.857Z,6.40
2018-03-01T02:57:16.048Z,6.60
2018-03-01T02:59:42.184Z,4.50
2018-03-01T03:02:08.367Z,5.47
2018-03-01T03:04:34.569Z,5.30
2018-03-01T03:07:00.715Z,3.87
2018-03-01T03:09:26.924Z,5.77
2018-03-01T03:11:53.070Z,4.33
2018-03-01T03:14:19.219Z,5.80
2018-03-01T03:16:45.443Z,4.97
2018-03-01T03:19:11.576Z,4.90
2018-03-01T03:21:37.748Z,6.30
2018-03-01T03:24:03.890Z,4.77
2018-03-01T03:26:30.101Z,5.30
2018-03-01T03:28:56.767Z,5.73
2018-03-01T03:31:22.877Z,6.40
2018-03-01T03:33:49.037Z,6.37
2018-03-01T03:36:15.194Z,5.80
2018-03-01T03:38:41.370Z,6.27
2018-03-01T03:41:07.548Z,6.10
2018-03-01T03:43:33.696Z,5.10
2018-03-01T03:45:59.848Z,6.00
2018-03-01T03:48:26.041Z,6.00
2018-03-01T03:50:52.175Z,7.37
2018-03-01T03:53:18.303Z,6.97
2018-03-01T03:55:44.501Z,6.70
2018-03-01T03:58:10.624Z,4.63
2018-03-01T04:00:36.736Z,5.50
2018-03-01T04:03:02.948Z,6.10
2018-03-01T04:05:29.093Z,6.37
2018-03-01T04:07:55.204Z,5.10
2018-03-01T04:10:22.120Z,3.63
2018-03-01T04:12:48.253Z,3.63
2018-03-01T04:15:14.376Z,6.20
2018-03-01T04:17:40.585Z,6.10
2018-03-01T04:20:06.788Z,5.40
2018-03-01T04:22:32.923Z,5.47
2018-03-01T04:24:59.112Z,4.93
2018-03-01T04:27:25.256Z,5.90
2018-03-01T04:29:51.404Z,5.27
2018-03-01T04:32:17.612Z,5.77
2018-03-01T04:34:43.858Z,4.57
2018-03-01T04:37:10.014Z,7.40
2018-03-01T04:39:36.248Z,5.07
2018-03-01T04:42:02.347Z,5.10
2018-03-01T04:44:28.508Z,4.53
2018-03-01T04:46:55.455Z,6.50
2018-03-01T04:49:21.689Z,6.90
2018-03-01T04:51:47.827Z,6.03
2018-03-01T04:54:14.902Z,6.43
2018-03-01T04:56:41.058Z,7.57
2018-03-01T04:59:07.179Z,6.30
2018-03-01T05:01:33.297Z,7.77
2018-03-01T05:03:59.399Z,7.05
2018-03-01T05:06:25.516Z,6.80
2018-03-01T05:08:51.640Z,6.97
2018-03-01T05:11:18.472Z,5.17
2018-03-01T05:13:44.555Z,6.27
2018-03-01T05:16:10.704Z,4.93
2018-03-01T05:18:36.802Z,7.30
2018-03-01T05:21:02.953Z,7.37
2018-03-01T05:23:29.974Z,7.70
2018-03-01T05:25:56.100Z,6.90
2018-03-01T05:28:22.205Z,7.30
2018-03-01T05:30:48.386Z,4.57
2018-03-01T05:33:16.294Z,7.60
2018-03-01T05:35:44.167Z,7.40
2018-03-01T05:38:12.056Z,7.82
2018-03-01T05:40:39.894Z,6.90
2018-03-01T05:43:07.744Z,6.18
2018-03-01T05:45:35.622Z,7.73
2018-03-01T05:48:03.497Z,7.90
2018-03-01T05:50:31.341Z,9.10
2018-03-01T05:52:59.288Z,8.13
2018-03-01T05:55:27.175Z,5.57
2018-03-01T05:57:55.067Z,6.93
2018-03-01T06:00:23.002Z,4.97
2018-03-01T06:02:50.880Z,8.33
2018-03-01T06:05:18.743Z,6.10
2018-03-01T06:07:46.633Z,7.97
2018-03-01T06:10:14.493Z,5.53
2018-03-01T06:12:42.381Z,9.17
2018-03-01T06:15:10.265Z,8.10
2018-03-01T06:17:38.163Z,8.47
2018-03-01T06:20:06.021Z,7.60
2018-03-01T06:22:33.933Z,8.03
2018-03-01T06:25:01.814Z,7.87
2018-03-01T06:27:29.733Z,8.70
2018-03-01T06:29:57.656Z,8.00
2018-03-01T06:32:25.526Z,5.60
2018-03-01T06:34:53.428Z,5.57
2018-03-01T06:37:21.335Z,7.57
2018-03-01T06:39:49.196Z,11.40
2018-03-01T06:42:17.092Z,9.80
2018-03-01T06:44:45.055Z,7.50
2018-03-01T06:47:12.933Z,8.00
2018-03-01T06:49:40.879Z,9.00
2018-03-01T06:52:08.803Z,7.50
2018-03-01T06:54:36.684Z,9.05
2018-03-01T06:57:04.617Z,9.60
2018-03-01T06:59:32.597Z,6.63
2018-03-01T07:02:00.491Z,9.13
2018-03-01T07:04:28.399Z,10.60
2018-03-01T07:06:56.272Z,6.13
2018-03-01T07:09:24.161Z,10.67
2018-03-01T07:11:52.065Z,10.70
2018-03-01T07:14:19.932Z,9.40
2018-03-01T07:16:47.791Z,7.70
2018-03-01T07:19:16.088Z,3.60
2018-03-01T07:21:44.420Z,5.35
2018-03-01T07:24:12.505Z,6.40
2018-03-01T07:26:40.449Z,11.17
2018-03-01T07:29:08.380Z,6.20
2018-03-01T07:31:36.253Z,9.07
2018-03-01T07:34:04.223Z,11.63
2018-03-01T07:36:32.079Z,8.07
2018-03-01T07:39:00.016Z,8.67
2018-03-01T07:41:27.962Z,4.93
2018-03-01T07:43:55.803Z,7.43
2018-03-01T07:46:23.661Z,6.93
2018-03-01T07:48:51.572Z,8.87
2018-03-01T07:51:19.499Z,9.43
2018-03-01T07:53:47.372Z,10.80
2018-03-01T07:56:15.276Z,12.07
2018-03-01T07:58:43.229Z,8.10
2018-03-01T08:01:09.434Z,9.23
2018-03-01T08:03:35.584Z,10.77
2018-03-01T08:06:01.738Z,7.73
2018-03-01T08:08:27.991Z,10.03
2018-03-01T08:10:54.923Z,12.47
2018-03-01T08:13:22.788Z,9.60
2018-03-01T08:15:50.672Z,7.03
2018-03-01T08:18:18.567Z,12.20
2018-03-01T08:20:46.439Z,9.80
2018-03-01T08:23:14.307Z,11.50
2018-03-01T08:25:42.224Z,9.23
2018-03-01T08:28:10.092Z,10.90
2018-03-01T08:30:37.956Z,9.87
2018-03-01T08:33:05.926Z,10.00
2018-03-01T08:35:33.822Z,8.73
2018-03-01T08:38:01.709Z,11.17
2018-03-01T08:40:29.613Z,10.13
2018-03-01T08:42:57.517Z,9.10
2018-03-01T08:45:25.494Z,11.43
2018-03-01T08:47:53.379Z,10.97
2018-03-01T08:50:21.216Z,11.03
2018-03-01T08:52:49.088Z,11.70
2018-03-01T08:55:16.959Z,8.97
2018-03-01T08:57:44.815Z,11.93
2018-03-01T09:00:12.701Z,13.07
2018-03-01T09:02:40.618Z,11.23
2018-03-01T09:05:08.520Z,11.77
2018-03-01T09:07:36.440Z,11.67
2018-03-01T09:10:04.352Z,9.20
2018-03-01T09:12:32.225Z,11.33
2018-03-01T09:15:00.100Z,12.90
2018-03-01T09:17:27.996Z,12.40
2018-03-01T09:19:55.927Z,12.33
2018-03-01T09:22:23.906Z,11.60
2018-03-01T09:24:51.831Z,11.87
2018-03-01T09:27:19.702Z,9.87
2018-03-01T09:29:47.586Z,11.10
2018-03-01T09:32:15.484Z,10.87
2018-03-01T09:34:43.380Z,10.23
2018-03-01T09:37:11.270Z,10.10
2018-03-01T09:39:39.147Z,9.70
2018-03-01T09:42:06.993Z,10.87
2018-03-01T09:44:34.857Z,10.60
2018-03-01T09:47:01.054Z,9.77
2018-03-01T09:49:28.959Z,11.50
2018-03-01T09:51:56.855Z,10.13
2018-03-01T09:54:24.750Z,7.47
2018-03-01T09:56:52.597Z,10.00
2018-03-01T09:59:20.450Z,11.63
2018-03-01T10:01:48.414Z,12.30
2018-03-01T10:04:16.312Z,12.97
2018-03-01T10:06:44.252Z,12.00
2018-03-01T10:09:12.129Z,12.27
2018-03-01T10:11:39.982Z,9.80
2018-03-01T10:14:07.878Z,11.97
2018-03-01T10:16:35.738Z,11.17
2018-03-01T10:19:03.649Z,10.33
2018-03-01T10:21:31.532Z,11.97
2018-03-01T10:23:59.408Z,12.50
2018-03-01T10:26:27.385Z,11.57
2018-03-01T10:28:55.245Z,9.63
2018-03-01T10:31:23.146Z,11.10
2018-03-01T10:33:51.014Z,8.80
2018-03-01T10:36:18.876Z,9.60
2018-03-01T10:38:46.816Z,9.13
2018-03-01T10:41:14.685Z,10.60
2018-03-01T10:43:42.577Z,10.43
2018-03-01T10:46:10.541Z,9.80
2018-03-01T10:48:38.393Z,10.50
2018-03-01T10:51:06.393Z,11.33
2018-03-01T10:53:34.305Z,11.67
2018-03-01T10:56:02.280Z,11.40
2018-03-01T10:58:30.164Z,12.80
2018-03-01T11:00:58.947Z,11.53
2018-03-01T11:03:26.869Z,11.93
2018-03-01T11:05:54.740Z,10.97
2018-03-01T11:08:21.091Z,11.60
2018-03-01T11:10:47.252Z,12.07
2018-03-01T11:13:15.112Z,10.80
2018-03-01T11:15:41.231Z,10.77
2018-03-01T11:18:07.356Z,9.10
2018-03-01T11:20:35.292Z,11.60
2018-03-01T11:23:03.268Z,8.00
2018-03-01T11:25:31.211Z,9.27
2018-03-01T11:27:59.108Z,11.27
2018-03-01T11:30:25.254Z,11.17
2018-03-01T11:32:53.165Z,8.90
2018-03-01T11:35:19.265Z,11.10
2018-03-01T11:37:45.376Z,9.47
2018-03-01T11:40:12.240Z,9.73
2018-03-01T11:42:38.415Z,8.57
2018-03-01T11:45:04.545Z,9.33
2018-03-01T11:47:30.739Z,8.97
2018-03-01T11:49:58.597Z,9.00
2018-03-01T11:52:26.476Z,10.27
2018-03-01T11:54:54.408Z,9.70
2018-03-01T11:57:22.321Z,10.57
2018-03-01T11:59:50.170Z,9.73
2018-03-01T12:02:18.104Z,10.40
2018-03-01T12:04:44.210Z,11.30
2018-03-01T12:07:10.351Z,9.60
2018-03-01T12:09:36.508Z,11.00
2018-03-01T12:12:02.653Z,11.27
2018-03-01T12:14:28.823Z,9.90
2018-03-01T12:16:55.713Z,9.77
2018-03-01T12:19:21.861Z,11.97
2018-03-01T12:21:47.968Z,9.93
2018-03-01T12:24:14.117Z,9.73
2018-03-01T12:26:40.238Z,10.57
2018-03-01T12:29:07.072Z,11.27
2018-03-01T12:31:34.341Z,10.57
2018-03-01T12:34:00.623Z,11.50
2018-03-01T12:36:26.758Z,12.73
2018-03-01T12:38:52.903Z,12.80
2018-03-01T12:41:19.102Z,12.23
2018-03-01T12:43:46.017Z,12.50
2018-03-01T12:46:12.139Z,12.43
2018-03-01T12:48:38.256Z,10.27
2018-03-01T12:51:06.140Z,11.20
2018-03-01T12:53:35.158Z,13.30
2018-03-01T12:56:01.474Z,10.73
2018-03-01T12:58:29.364Z,9.60
2018-03-01T13:00:57.284Z,8.73
2018-03-01T13:03:25.286Z,10.10
2018-03-01T13:05:51.434Z,10.10
2018-03-01T13:08:19.346Z,8.30
2018-03-01T13:10:47.253Z,9.93
2018-03-01T13:13:15.119Z,10.80
2018-03-01T13:15:43.007Z,11.10
2018-03-01T13:18:10.884Z,10.17
2018-03-01T13:20:38.773Z,9.47
2018-03-01T13:23:06.637Z,11.50
2018-03-01T13:25:34.541Z,12.10
2018-03-01T13:28:02.598Z,9.07
2018-03-01T13:30:31.585Z,8.40
2018-03-01T13:36:07.024Z,11.03
2018-03-01T13:38:33.445Z,11.17
2018-03-01T13:41:01.330Z,12.03
2018-03-01T13:43:30.758Z,11.13
2018-03-01T13:46:12.732Z,11.47
2018-03-01T13:48:38.861Z,9.70
2018-03-01T13:51:05.747Z,9.17
2018-03-01T13:53:32.008Z,8.30
2018-03-01T13:55:58.165Z,10.73
2018-03-01T13:58:24.345Z,11.40
2018-03-01T14:00:51.225Z,10.80
2018-03-01T14:03:17.325Z,10.00
2018-03-01T14:08:55.645Z,10.63
2018-03-01T14:11:21.847Z,10.80
2018-03-01T14:13:47.943Z,10.20
2018-03-01T14:16:15.809Z,10.87
2018-03-01T14:18:44.661Z,12.23
2018-03-01T14:21:14.501Z,11.17
2018-03-01T14:23:58.491Z,10.50
2018-03-01T14:26:27.308Z,10.67
2018-03-01T14:28:58.182Z,11.43
2018-03-01T14:31:26.148Z,10.70
2018-03-01T14:33:54.020Z,9.33
2018-03-01T14:36:21.973Z,11.30
2018-03-01T14:38:49.996Z,9.60
2018-03-01T14:41:17.970Z,9.60
2018-03-01T14:43:46.107Z,9.37
2018-03-01T14:46:14.080Z,10.97
2018-03-01T14:48:42.387Z,11.40
2018-03-01T14:51:10.320Z,10.90
2018-03-01T14:53:38.247Z,9.07
2018-03-01T14:56:06.122Z,10.47
2018-03-01T14:58:34.036Z,9.37
2018-03-01T15:01:00.974Z,7.73
2018-03-01T15:03:27.431Z,9.20
2018-03-01T15:05:54.005Z,11.37
2018-03-01T15:08:20.116Z,10.53
2018-03-01T15:10:47.006Z,7.23
2018-03-01T15:13:13.426Z,12.33
2018-03-01T15:15:40.445Z,10.00
2018-03-01T15:18:06.561Z,11.77
2018-03-01T15:20:32.991Z,9.70
2018-03-01T15:22:59.711Z,10.57
2018-03-01T15:25:25.898Z,12.33
2018-03-01T15:27:52.482Z,11.10
2018-03-01T15:30:18.608Z,9.60
2018-03-01T15:32:44.784Z,10.93
2018-03-01T15:35:10.929Z,11.37
2018-03-01T15:37:37.149Z,9.77
2018-03-01T15:40:03.242Z,11.00
2018-03-01T15:42:29.392Z,11.63
2018-03-01T15:44:55.540Z,11.10
2018-03-01T15:47:21.592Z,9.30
2018-03-01T15:49:48.640Z,9.23
2018-03-01T15:52:14.749Z,9.70
2018-03-01T15:54:40.846Z,10.43
2018-03-01T15:57:07.718Z,11.27
2018-03-01T15:59:33.818Z,10.33
2018-03-01T16:02:01.042Z,9.27
2018-03-01T16:04:27.233Z,7.50
2018-03-01T16:06:54.077Z,11.13
2018-03-01T16:09:20.661Z,8.10
2018-03-01T16:11:46.798Z,10.23
2018-03-01T16:14:13.422Z,12.10
2018-03-01T16:16:40.472Z,9.70
2018-03-01T16:19:07.360Z,9.30
2018-03-01T16:21:33.554Z,11.63
2018-03-01T16:24:00.453Z,12.53
2018-03-01T16:26:26.664Z,11.73
2018-03-01T16:28:52.790Z,12.90
2018-03-01T16:31:18.951Z,12.10
2018-03-01T16:33:45.128Z,11.30
2018-03-01T16:36:11.336Z,8.57
2018-03-01T16:38:38.170Z,11.13
2018-03-01T16:41:04.326Z,9.70
2018-03-01T16:43:31.171Z,12.63
2018-03-01T16:45:57.352Z,12.70
2018-03-01T16:48:23.516Z,10.33
2018-03-01T16:50:49.629Z,13.53
2018-03-01T16:53:15.710Z,11.67
2018-03-01T16:55:41.851Z,11.50
2018-03-01T16:58:07.963Z,13.30
2018-03-01T17:00:34.105Z,10.43
2018-03-01T17:03:00.464Z,12.40
2018-03-01T17:05:26.603Z,14.43
2018-03-01T17:07:52.769Z,10.70
2018-03-01T17:10:19.671Z,13.80
2018-03-01T17:12:45.777Z,13.90
2018-03-01T17:15:12.665Z,14.07
2018-03-01T17:17:38.750Z,13.97
2018-03-01T17:20:04.878Z,14.57
2018-03-01T17:22:30.971Z,14.40
2018-03-01T17:24:57.072Z,15.03
2018-03-01T17:27:23.948Z,12.07
2018-03-01T17:29:50.108Z,14.07
2018-03-01T17:32:16.231Z,13.70
2018-03-01T17:34:42.415Z,11.43
2018-03-01T17:37:08.546Z,12.93
2018-03-01T17:39:36.738Z,12.80
2018-03-01T17:42:02.838Z,16.93
2018-03-01T17:44:28.984Z,18.37
2018-03-01T17:46:55.289Z,16.00
2018-03-01T17:49:21.442Z,15.73
2018-03-01T17:51:47.580Z,20.47
2018-03-01T17:54:13.685Z,15.03
2018-03-01T17:56:39.856Z,12.83
2018-03-01T17:59:06.810Z,13.13
2018-03-01T18:01:32.950Z,18.47
2018-03-01T18:03:59.784Z,11.47
2018-03-01T18:06:25.895Z,15.37
2018-03-01T18:08:52.134Z,13.93
2018-03-01T18:11:18.275Z,16.63
2018-03-01T18:13:44.414Z,17.00
2018-03-01T18:16:10.671Z,20.03
2018-03-01T18:18:36.862Z,11.80
2018-03-01T18:21:03.117Z,9.33
2018-03-01T18:23:29.288Z,14.97
2018-03-01T18:25:55.390Z,10.20
2018-03-01T18:28:21.605Z,10.60
2018-03-01T18:30:47.716Z,15.17
2018-03-01T18:33:13.869Z,12.20
2018-03-01T18:35:40.964Z,14.30
2018-03-01T18:38:07.114Z,9.00
2018-03-01T18:40:33.304Z,11.30
2018-03-01T18:43:00.162Z,12.30
2018-03-01T18:45:26.381Z,8.50
2018-03-01T18:47:52.578Z,12.77
2018-03-01T18:50:19.002Z,11.00
2018-03-01T18:52:45.094Z,11.03
2018-03-01T18:55:11.256Z,9.73
2018-03-01T18:57:37.398Z,7.43
2018-03-01T19:00:03.514Z,8.93
2018-03-01T19:02:29.951Z,11.90
2018-03-01T19:04:56.076Z,11.20
2018-03-01T19:07:22.159Z,9.03
2018-03-01T19:09:49.049Z,11.23
2018-03-01T19:12:15.179Z,10.50
2018-03-01T19:14:41.330Z,11.67
2018-03-01T19:17:07.484Z,11.07
2018-03-01T19:19:33.638Z,9.93
2018-03-01T19:21:59.747Z,11.30
2018-03-01T19:24:25.906Z,9.90
2018-03-01T19:26:52.161Z,10.83
2018-03-01T19:29:18.256Z,13.07
2018-03-01T19:31:44.460Z,13.33
2018-03-01T19:34:11.430Z,13.10
2018-03-01T19:36:38.309Z,9.70
2018-03-01T19:39:04.562Z,13.07
2018-03-01T19:41:32.495Z,12.47
2018-03-01T19:44:00.458Z,7.27
2018-03-01T19:46:28.988Z,11.87
2018-03-01T19:48:55.826Z,12.10
2018-03-01T19:51:22.796Z,11.10
2018-03-01T19:53:49.092Z,12.23
2018-03-01T19:56:15.425Z,12.00
2018-03-01T19:58:41.593Z,9.00
2018-03-01T20:01:07.790Z,10.93
2018-03-01T20:03:34.025Z,11.87
2018-03-01T20:06:00.248Z,9.67
2018-03-01T20:08:26.495Z,12.17
2018-03-01T20:10:52.804Z,10.10
2018-03-01T20:13:19.014Z,10.07
2018-03-01T20:15:46.200Z,9.57
2018-03-01T20:18:12.508Z,8.87
2018-03-01T20:20:38.759Z,13.80
2018-03-01T20:23:05.930Z,12.30
2018-03-01T20:25:32.215Z,9.03
2018-03-01T20:27:58.532Z,12.23
2018-03-01T20:30:25.497Z,7.90
2018-03-01T20:32:51.661Z,10.10
2018-03-01T20:35:17.866Z,12.47
2018-03-01T20:37:44.094Z,9.90
2018-03-01T20:40:10.275Z,13.53
2018-03-01T20:42:37.296Z,13.93
2018-03-01T20:45:03.491Z,10.33
2018-03-01T20:47:29.743Z,12.40
2018-03-01T20:49:55.882Z,12.60
2018-03-01T20:52:22.012Z,12.10
2018-03-01T20:54:48.128Z,10.07
2018-03-01T20:57:14.292Z,13.20
2018-03-01T20:59:40.655Z,9.60
2018-03-01T21:02:06.919Z,12.40
2018-03-01T21:04:33.875Z,8.90
2018-03-01T21:06:59.992Z,14.60
2018-03-01T21:09:26.800Z,11.27
2018-03-01T21:11:53.657Z,13.53
2018-03-01T21:14:20.499Z,14.77
2018-03-01T21:16:46.617Z,11.97
2018-03-01T21:19:12.817Z,7.60
2018-03-01T21:21:38.926Z,11.80
2018-03-01T21:24:05.070Z,7.93
2018-03-01T21:26:31.217Z,11.27
2018-03-01T21:28:57.353Z,15.43
2018-03-01T21:31:23.513Z,13.07
2018-03-01T21:33:49.608Z,14.00
2018-03-01T21:36:15.779Z,12.67
2018-03-01T21:38:41.922Z,10.60
2018-03-01T21:41:08.068Z,9.13
2018-03-01T21:43:34.197Z,14.80
2018-03-01T21:46:00.357Z,14.03
2018-03-01T21:48:26.487Z,15.30
2018-03-01T21:50:52.604Z,13.83
2018-03-01T21:53:18.703Z,15.43
2018-03-01T21:55:44.795Z,11.53
2018-03-01T21:58:11.172Z,11.10
2018-03-01T22:00:38.560Z,16.60
2018-03-01T22:03:05.407Z,12.90
2018-03-01T22:05:31.540Z,13.80
2018-03-01T22:07:58.098Z,13.40
2018-03-01T22:10:24.217Z,11.00
2018-03-01T22:12:50.461Z,12.43
2018-03-01T22:15:16.657Z,9.00
2018-03-01T22:17:42.899Z,14.97
2018-03-01T22:20:09.856Z,12.33
2018-03-01T22:22:36.455Z,7.17
2018-03-01T22:25:02.633Z,11.47
2018-03-01T22:27:28.733Z,12.67
2018-03-01T22:29:54.889Z,13.37
2018-03-01T22:32:21.025Z,13.70
2018-03-01T22:34:47.911Z,10.97
2018-03-01T22:37:14.024Z,11.27
2018-03-01T22:39:40.886Z,16.87
2018-03-01T22:42:07.778Z,12.37
2018-03-01T22:44:33.908Z,11.87
2018-03-01T22:47:00.015Z,12.20
2018-03-01T22:49:26.194Z,14.23
2018-03-01T22:51:52.331Z,11.30
2018-03-01T22:54:18.427Z,10.43
2018-03-01T22:56:44.615Z,13.53
2018-03-01T22:59:10.715Z,13.07
2018-03-01T23:01:37.555Z,12.10
2018-03-01T23:04:04.528Z,9.90
2018-03-01T23:06:30.623Z,13.10
2018-03-01T23:08:56.736Z,9.97
2018-03-01T23:11:22.948Z,11.43
2018-03-01T23:13:49.111Z,11.13
2018-03-01T23:16:15.284Z,12.13
2018-03-01T23:18:41.385Z,9.20
2018-03-01T23:21:07.844Z,14.50
2018-03-01T23:23:33.946Z,9.23
2018-03-01T23:26:00.815Z,11.80
2018-03-01T23:28:27.025Z,10.83
2018-03-01T23:30:53.898Z,12.30
2018-03-01T23:33:20.252Z,13.30
2018-03-01T23:35:46.333Z,13.57
2018-03-01T23:38:12.411Z,11.87
2018-03-01T23:40:39.461Z,13.00
2018-03-01T23:43:06.527Z,13.07
2018-03-01T23:45:32.669Z,10.10
2018-03-01T23:47:59.532Z,13.40
2018-03-01T23:50:25.623Z,10.80
2018-03-01T23:52:51.715Z,10.87
2018-03-01T23:55:17.854Z,12.67
2018-03-01T23:57:44.142Z,13.30
